sensor_id;sensor_type;location;lat;lon;timestamp;P1;durP1;ratioP1;P2;durP2;ratioP2
18425;SDS011;9340;48.756;9.226;2023-07-28T00:00:19;5.18;;;4.70;;
18425;SDS011;9340;48.756;9.226;2023-07-28T00:02:46;4.78;;;4.38;;
18425;SDS011;9340;48.756;9.226;2023-07-28T00:05:13;5.22;;;4.82;;
18425;SDS011;9340;48.756;9.226;2023-07-28T00:07:40;5.32;;;4.80;;
18425;SDS011;9340;48.756;9.226;2023-07-28T00:10:06;4.75;;;4.38;;
18425;SDS011;9340;48.756;9.226;2023-07-28T00:12:34;4.60;;;4.13;;
18425;SDS011;9340;48.756;9.226;2023-07-28T00:15:02;5.38;;;4.53;;
18425;SDS011;9340;48.756;9.226;2023-07-28T00:17:29;5.03;;;4.55;;
18425;SDS011;9340;48.756;9.226;2023-07-28T00:19:55;5.97;;;5.47;;
18425;SDS011;9340;48.756;9.226;2023-07-28T00:22:22;5.53;;;4.47;;
18425;SDS011;9340;48.756;9.226;2023-07-28T00:24:49;5.38;;;4.97;;
18425;SDS011;9340;48.756;9.226;2023-07-28T00:27:15;5.07;;;4.63;;
18425;SDS011;9340;48.756;9.226;2023-07-28T00:29:43;5.50;;;5.10;;
18425;SDS011;9340;48.756;9.226;2023-07-28T00:32:11;5.27;;;4.87;;
18425;SDS011;9340;48.756;9.226;2023-07-28T00:34:38;5.50;;;5.00;;
18425;SDS011;9340;48.756;9.226;2023-07-28T00:37:04;5.28;;;4.88;;
18425;SDS011;9340;48.756;9.226;2023-07-28T00:39:31;4.97;;;4.50;;
18425;SDS011;9340;48.756;9.226;2023-07-28T00:41:58;4.77;;;4.47;;
18425;SDS011;9340;48.756;9.226;2023-07-28T00:44:24;4.83;;;4.43;;
18425;SDS011;9340;48.756;9.226;2023-07-28T00:46:51;7.20;;;5.37;;
18425;SDS011;9340;48.756;9.226;2023-07-28T00:49:19;5.28;;;4.38;;
18425;SDS011;9340;48.756;9.226;2023-07-28T00:51:47;5.27;;;4.87;;
18425;SDS011;9340;48.756;9.226;2023-07-28T00:54:15;5.47;;;5.07;;
18425;SDS011;9340;48.756;9.226;2023-07-28T00:56:43;5.63;;;4.90;;
18425;SDS011;9340;48.756;9.226;2023-07-28T00:59:10;5.10;;;4.70;;
18425;SDS011;9340;48.756;9.226;2023-07-28T01:01:37;5.60;;;5.20;;
18425;SDS011;9340;48.756;9.226;2023-07-28T01:04:04;4.50;;;4.10;;
18425;SDS011;9340;48.756;9.226;2023-07-28T01:06:34;7.60;;;5.63;;
18425;SDS011;9340;48.756;9.226;2023-07-28T01:09:09;4.80;;;4.40;;
18425;SDS011;9340;48.756;9.226;2023-07-28T01:11:52;5.03;;;4.63;;
18425;SDS011;9340;48.756;9.226;2023-07-28T01:14:19;4.90;;;4.43;;
18425;SDS011;9340;48.756;9.226;2023-07-28T01:16:46;7.53;;;5.63;;
18425;SDS011;9340;48.756;9.226;2023-07-28T01:19:12;4.73;;;4.20;;
18425;SDS011;9340;48.756;9.226;2023-07-28T01:21:44;6.13;;;5.53;;
18425;SDS011;9340;48.756;9.226;2023-07-28T01:24:15;6.03;;;5.53;;
18425;SDS011;9340;48.756;9.226;2023-07-28T01:26:48;5.73;;;5.00;;
18425;SDS011;9340;48.756;9.226;2023-07-28T01:29:16;5.23;;;4.83;;
18425;SDS011;9340;48.756;9.226;2023-07-28T01:31:45;4.77;;;4.30;;
18425;SDS011;9340;48.756;9.226;2023-07-28T01:34:12;5.23;;;4.83;;
18425;SDS011;9340;48.756;9.226;2023-07-28T01:36:39;5.57;;;5.07;;
18425;SDS011;9340;48.756;9.226;2023-07-28T01:39:06;5.53;;;5.10;;
18425;SDS011;9340;48.756;9.226;2023-07-28T01:41:32;5.03;;;4.43;;
18425;SDS011;9340;48.756;9.226;2023-07-28T01:44:00;5.30;;;4.90;;
18425;SDS011;9340;48.756;9.226;2023-07-28T01:46:27;5.13;;;4.57;;
18425;SDS011;9340;48.756;9.226;2023-07-28T01:48:54;5.03;;;4.63;;
18425;SDS011;9340;48.756;9.226;2023-07-28T01:51:20;5.50;;;5.03;;
18425;SDS011;9340;48.756;9.226;2023-07-28T01:53:47;5.40;;;4.63;;
18425;SDS011;9340;48.756;9.226;2023-07-28T01:56:14;5.17;;;4.23;;
18425;SDS011;9340;48.756;9.226;2023-07-28T01:58:40;5.63;;;5.13;;
18425;SDS011;9340;48.756;9.226;2023-07-28T02:01:08;5.30;;;4.80;;
18425;SDS011;9340;48.756;9.226;2023-07-28T02:03:35;5.50;;;4.90;;
18425;SDS011;9340;48.756;9.226;2023-07-28T02:06:02;4.13;;;3.73;;
18425;SDS011;9340;48.756;9.226;2023-07-28T02:08:29;5.20;;;4.30;;
18425;SDS011;9340;48.756;9.226;2023-07-28T02:10:55;5.00;;;4.60;;
18425;SDS011;9340;48.756;9.226;2023-07-28T02:13:22;5.70;;;5.30;;
18425;SDS011;9340;48.756;9.226;2023-07-28T02:15:48;5.20;;;4.70;;
18425;SDS011;9340;48.756;9.226;2023-07-28T02:18:16;5.53;;;5.13;;
18425;SDS011;9340;48.756;9.226;2023-07-28T02:20:43;4.70;;;4.40;;
18425;SDS011;9340;48.756;9.226;2023-07-28T02:23:10;4.90;;;4.50;;
18425;SDS011;9340;48.756;9.226;2023-07-28T02:25:36;5.43;;;4.93;;
18425;SDS011;9340;48.756;9.226;2023-07-28T02:28:03;5.73;;;5.13;;
18425;SDS011;9340;48.756;9.226;2023-07-28T02:30:30;5.30;;;4.90;;
18425;SDS011;9340;48.756;9.226;2023-07-28T02:32:56;5.50;;;5.03;;
18425;SDS011;9340;48.756;9.226;2023-07-28T02:35:25;5.13;;;4.63;;
18425;SDS011;9340;48.756;9.226;2023-07-28T02:37:51;4.53;;;4.10;;
18425;SDS011;9340;48.756;9.226;2023-07-28T02:40:18;5.37;;;4.90;;
18425;SDS011;9340;48.756;9.226;2023-07-28T02:42:45;5.53;;;5.13;;
18425;SDS011;9340;48.756;9.226;2023-07-28T02:45:11;5.87;;;4.57;;
18425;SDS011;9340;48.756;9.226;2023-07-28T02:47:38;5.47;;;5.07;;
18425;SDS011;9340;48.756;9.226;2023-07-28T02:50:05;7.87;;;5.03;;
18425;SDS011;9340;48.756;9.226;2023-07-28T02:52:33;4.73;;;4.30;;
18425;SDS011;9340;48.756;9.226;2023-07-28T02:55:00;4.88;;;4.53;;
18425;SDS011;9340;48.756;9.226;2023-07-28T02:57:26;5.60;;;5.20;;
18425;SDS011;9340;48.756;9.226;2023-07-28T02:59:53;5.83;;;5.33;;
18425;SDS011;9340;48.756;9.226;2023-07-28T03:02:20;4.57;;;4.20;;
18425;SDS011;9340;48.756;9.226;2023-07-28T03:04:47;5.17;;;4.77;;
18425;SDS011;9340;48.756;9.226;2023-07-28T03:07:13;5.53;;;5.13;;
18425;SDS011;9340;48.756;9.226;2023-07-28T03:09:41;5.23;;;4.83;;
18425;SDS011;9340;48.756;9.226;2023-07-28T03:12:08;5.27;;;4.77;;
18425;SDS011;9340;48.756;9.226;2023-07-28T03:14:35;5.37;;;4.87;;
18425;SDS011;9340;48.756;9.226;2023-07-28T03:17:02;5.80;;;5.20;;
18425;SDS011;9340;48.756;9.226;2023-07-28T03:19:28;5.78;;;5.28;;
18425;SDS011;9340;48.756;9.226;2023-07-28T03:21:55;5.30;;;4.80;;
18425;SDS011;9340;48.756;9.226;2023-07-28T03:24:22;6.40;;;5.85;;
18425;SDS011;9340;48.756;9.226;2023-07-28T03:26:50;5.20;;;4.80;;
18425;SDS011;9340;48.756;9.226;2023-07-28T03:29:16;5.77;;;5.33;;
18425;SDS011;9340;48.756;9.226;2023-07-28T03:31:43;5.35;;;4.95;;
18425;SDS011;9340;48.756;9.226;2023-07-28T03:34:10;6.00;;;5.27;;
18425;SDS011;9340;48.756;9.226;2023-07-28T03:36:36;6.05;;;5.53;;
18425;SDS011;9340;48.756;9.226;2023-07-28T03:39:03;4.87;;;4.53;;
18425;SDS011;9340;48.756;9.226;2023-07-28T03:41:30;5.50;;;5.10;;
18425;SDS011;9340;48.756;9.226;2023-07-28T03:43:58;5.60;;;5.20;;
18425;SDS011;9340;48.756;9.226;2023-07-28T03:46:25;5.38;;;4.75;;
18425;SDS011;9340;48.756;9.226;2023-07-28T03:48:51;5.22;;;4.80;;
18425;SDS011;9340;48.756;9.226;2023-07-28T03:51:18;4.93;;;4.55;;
18425;SDS011;9340;48.756;9.226;2023-07-28T03:53:45;4.97;;;4.65;;
18425;SDS011;9340;48.756;9.226;2023-07-28T03:56:11;4.95;;;4.55;;
18425;SDS011;9340;48.756;9.226;2023-07-28T03:58:38;5.68;;;5.00;;
18425;SDS011;9340;48.756;9.226;2023-07-28T04:01:06;5.60;;;5.10;;
18425;SDS011;9340;48.756;9.226;2023-07-28T04:03:34;5.93;;;5.25;;
18425;SDS011;9340;48.756;9.226;2023-07-28T04:06:04;5.38;;;4.97;;
18425;SDS011;9340;48.756;9.226;2023-07-28T04:08:32;5.80;;;5.28;;
18425;SDS011;9340;48.756;9.226;2023-07-28T04:10:59;5.68;;;5.28;;
18425;SDS011;9340;48.756;9.226;2023-07-28T04:13:25;5.90;;;4.63;;
18425;SDS011;9340;48.756;9.226;2023-07-28T04:15:52;5.90;;;5.50;;
18425;SDS011;9340;48.756;9.226;2023-07-28T04:18:20;6.32;;;5.75;;
18425;SDS011;9340;48.756;9.226;2023-07-28T04:20:48;5.93;;;5.53;;
18425;SDS011;9340;48.756;9.226;2023-07-28T04:23:15;5.57;;;5.18;;
18425;SDS011;9340;48.756;9.226;2023-07-28T04:25:41;7.40;;;6.03;;
18425;SDS011;9340;48.756;9.226;2023-07-28T04:28:08;7.30;;;5.20;;
18425;SDS011;9340;48.756;9.226;2023-07-28T04:30:35;5.90;;;5.40;;
18425;SDS011;9340;48.756;9.226;2023-07-28T04:33:01;5.22;;;4.75;;
18425;SDS011;9340;48.756;9.226;2023-07-28T04:35:30;5.60;;;5.10;;
18425;SDS011;9340;48.756;9.226;2023-07-28T04:37:57;5.82;;;5.25;;
18425;SDS011;9340;48.756;9.226;2023-07-28T04:40:24;5.40;;;4.90;;
18425;SDS011;9340;48.756;9.226;2023-07-28T04:42:50;6.72;;;5.28;;
18425;SDS011;9340;48.756;9.226;2023-07-28T04:45:18;5.13;;;4.72;;
18425;SDS011;9340;48.756;9.226;2023-07-28T04:47:45;5.63;;;5.10;;
18425;SDS011;9340;48.756;9.226;2023-07-28T04:50:12;5.57;;;5.18;;
18425;SDS011;9340;48.756;9.226;2023-07-28T04:52:40;5.30;;;4.90;;
18425;SDS011;9340;48.756;9.226;2023-07-28T04:55:07;5.68;;;4.95;;
18425;SDS011;9340;48.756;9.226;2023-07-28T04:57:34;6.03;;;5.43;;
18425;SDS011;9340;48.756;9.226;2023-07-28T05:00:00;5.38;;;4.93;;
18425;SDS011;9340;48.756;9.226;2023-07-28T05:02:27;10.05;;;5.03;;
18425;SDS011;9340;48.756;9.226;2023-07-28T05:04:54;6.38;;;5.47;;
18425;SDS011;9340;48.756;9.226;2023-07-28T05:07:21;5.60;;;5.20;;
18425;SDS011;9340;48.756;9.226;2023-07-28T05:09:48;6.38;;;4.47;;
18425;SDS011;9340;48.756;9.226;2023-07-28T05:12:15;5.53;;;5.03;;
18425;SDS011;9340;48.756;9.226;2023-07-28T05:14:42;5.57;;;5.18;;
18425;SDS011;9340;48.756;9.226;2023-07-28T05:17:08;5.30;;;4.80;;
18425;SDS011;9340;48.756;9.226;2023-07-28T05:19:35;4.60;;;4.20;;
18425;SDS011;9340;48.756;9.226;2023-07-28T05:22:02;4.68;;;4.38;;
18425;SDS011;9340;48.756;9.226;2023-07-28T05:24:28;5.40;;;4.90;;
18425;SDS011;9340;48.756;9.226;2023-07-28T05:26:56;5.53;;;5.03;;
18425;SDS011;9340;48.756;9.226;2023-07-28T05:29:23;5.03;;;4.63;;
18425;SDS011;9340;48.756;9.226;2023-07-28T05:31:50;4.90;;;4.50;;
18425;SDS011;9340;48.756;9.226;2023-07-28T05:34:16;5.00;;;4.60;;
18425;SDS011;9340;48.756;9.226;2023-07-28T05:36:43;5.13;;;4.72;;
18425;SDS011;9340;48.756;9.226;2023-07-28T05:39:10;4.93;;;4.53;;
18425;SDS011;9340;48.756;9.226;2023-07-28T05:41:37;5.40;;;4.95;;
18425;SDS011;9340;48.756;9.226;2023-07-28T05:44:05;5.10;;;4.50;;
18425;SDS011;9340;48.756;9.226;2023-07-28T05:46:32;4.70;;;4.30;;
18425;SDS011;9340;48.756;9.226;2023-07-28T05:48:59;5.00;;;4.45;;
18425;SDS011;9340;48.756;9.226;2023-07-28T05:51:26;4.70;;;4.28;;
18425;SDS011;9340;48.756;9.226;2023-07-28T05:53:53;4.85;;;4.53;;
18425;SDS011;9340;48.756;9.226;2023-07-28T05:56:20;4.40;;;4.10;;
18425;SDS011;9340;48.756;9.226;2023-07-28T05:58:46;4.70;;;4.30;;
18425;SDS011;9340;48.756;9.226;2023-07-28T06:01:16;4.80;;;4.40;;
18425;SDS011;9340;48.756;9.226;2023-07-28T06:03:43;4.32;;;3.92;;
18425;SDS011;9340;48.756;9.226;2023-07-28T06:06:10;4.50;;;4.20;;
18425;SDS011;9340;48.756;9.226;2023-07-28T06:08:37;5.28;;;4.50;;
18425;SDS011;9340;48.756;9.226;2023-07-28T06:11:04;5.55;;;4.97;;
18425;SDS011;9340;48.756;9.226;2023-07-28T06:13:32;5.38;;;4.97;;
18425;SDS011;9340;48.756;9.226;2023-07-28T06:15:59;4.80;;;4.50;;
18425;SDS011;9340;48.756;9.226;2023-07-28T06:18:27;5.75;;;4.90;;
18425;SDS011;9340;48.756;9.226;2023-07-28T06:20:53;8.77;;;5.30;;
18425;SDS011;9340;48.756;9.226;2023-07-28T06:23:20;5.35;;;4.30;;
18425;SDS011;9340;48.756;9.226;2023-07-28T06:25:46;7.20;;;5.25;;
18425;SDS011;9340;48.756;9.226;2023-07-28T06:28:13;5.07;;;4.57;;
18425;SDS011;9340;48.756;9.226;2023-07-28T06:30:40;5.35;;;4.85;;
18425;SDS011;9340;48.756;9.226;2023-07-28T06:33:07;5.32;;;4.82;;
18425;SDS011;9340;48.756;9.226;2023-07-28T06:35:36;5.30;;;4.90;;
18425;SDS011;9340;48.756;9.226;2023-07-28T06:38:02;6.10;;;5.55;;
18425;SDS011;9340;48.756;9.226;2023-07-28T06:40:29;4.93;;;4.53;;
18425;SDS011;9340;48.756;9.226;2023-07-28T06:42:56;5.47;;;4.93;;
18425;SDS011;9340;48.756;9.226;2023-07-28T06:45:22;5.28;;;4.88;;
18425;SDS011;9340;48.756;9.226;2023-07-28T06:47:49;4.93;;;4.53;;
18425;SDS011;9340;48.756;9.226;2023-07-28T06:50:17;5.13;;;4.55;;
18425;SDS011;9340;48.756;9.226;2023-07-28T06:52:45;5.55;;;4.95;;
18425;SDS011;9340;48.756;9.226;2023-07-28T06:55:13;5.72;;;4.60;;
18425;SDS011;9340;48.756;9.226;2023-07-28T06:57:39;5.85;;;5.30;;
18425;SDS011;9340;48.756;9.226;2023-07-28T07:00:06;5.20;;;4.68;;
18425;SDS011;9340;48.756;9.226;2023-07-28T07:02:34;4.68;;;4.20;;
18425;SDS011;9340;48.756;9.226;2023-07-28T07:05:01;5.25;;;4.85;;
18425;SDS011;9340;48.756;9.226;2023-07-28T07:07:28;5.75;;;4.88;;
18425;SDS011;9340;48.756;9.226;2023-07-28T07:09:56;5.35;;;4.95;;
18425;SDS011;9340;48.756;9.226;2023-07-28T07:12:23;4.82;;;4.35;;
18425;SDS011;9340;48.756;9.226;2023-07-28T07:14:50;4.88;;;4.47;;
18425;SDS011;9340;48.756;9.226;2023-07-28T07:17:16;5.15;;;4.75;;
18425;SDS011;9340;48.756;9.226;2023-07-28T07:19:43;4.78;;;4.47;;
18425;SDS011;9340;48.756;9.226;2023-07-28T07:22:10;5.10;;;4.60;;
18425;SDS011;9340;48.756;9.226;2023-07-28T07:24:36;5.13;;;4.72;;
18425;SDS011;9340;48.756;9.226;2023-07-28T07:27:05;4.70;;;4.40;;
18425;SDS011;9340;48.756;9.226;2023-07-28T07:29:35;5.10;;;4.60;;
18425;SDS011;9340;48.756;9.226;2023-07-28T07:32:03;5.00;;;4.60;;
18425;SDS011;9340;48.756;9.226;2023-07-28T07:34:30;5.10;;;4.55;;
18425;SDS011;9340;48.756;9.226;2023-07-28T07:36:57;4.63;;;4.22;;
18425;SDS011;9340;48.756;9.226;2023-07-28T07:39:24;4.57;;;4.18;;
18425;SDS011;9340;48.756;9.226;2023-07-28T07:41:51;5.00;;;4.50;;
18425;SDS011;9340;48.756;9.226;2023-07-28T07:44:19;4.40;;;4.00;;
18425;SDS011;9340;48.756;9.226;2023-07-28T07:46:45;4.13;;;3.83;;
18425;SDS011;9340;48.756;9.226;2023-07-28T07:49:12;4.30;;;3.92;;
18425;SDS011;9340;48.756;9.226;2023-07-28T07:51:39;3.92;;;3.63;;
18425;SDS011;9340;48.756;9.226;2023-07-28T07:54:05;4.57;;;4.18;;
18425;SDS011;9340;48.756;9.226;2023-07-28T07:56:32;4.72;;;4.32;;
18425;SDS011;9340;48.756;9.226;2023-07-28T07:58:59;4.43;;;4.07;;
18425;SDS011;9340;48.756;9.226;2023-07-28T08:01:27;4.60;;;4.20;;
18425;SDS011;9340;48.756;9.226;2023-07-28T08:03:53;5.88;;;4.47;;
18425;SDS011;9340;48.756;9.226;2023-07-28T08:06:20;4.43;;;4.05;;
18425;SDS011;9340;48.756;9.226;2023-07-28T08:08:47;4.55;;;4.25;;
18425;SDS011;9340;48.756;9.226;2023-07-28T08:11:15;4.32;;;3.85;;
18425;SDS011;9340;48.756;9.226;2023-07-28T08:13:42;4.30;;;4.00;;
18425;SDS011;9340;48.756;9.226;2023-07-28T08:16:10;4.85;;;4.22;;
18425;SDS011;9340;48.756;9.226;2023-07-28T08:18:38;4.32;;;4.03;;
18425;SDS011;9340;48.756;9.226;2023-07-28T08:21:05;6.03;;;5.53;;
18425;SDS011;9340;48.756;9.226;2023-07-28T08:23:31;5.50;;;5.00;;
18425;SDS011;9340;48.756;9.226;2023-07-28T08:25:58;5.70;;;5.18;;
18425;SDS011;9340;48.756;9.226;2023-07-28T08:28:24;5.72;;;5.22;;
18425;SDS011;9340;48.756;9.226;2023-07-28T08:30:54;7.43;;;5.10;;
18425;SDS011;9340;48.756;9.226;2023-07-28T08:33:23;5.88;;;5.28;;
18425;SDS011;9340;48.756;9.226;2023-07-28T08:35:51;5.93;;;5.43;;
18425;SDS011;9340;48.756;9.226;2023-07-28T08:38:17;5.75;;;5.25;;
18425;SDS011;9340;48.756;9.226;2023-07-28T08:40:44;6.00;;;5.40;;
18425;SDS011;9340;48.756;9.226;2023-07-28T08:43:11;5.28;;;4.78;;
18425;SDS011;9340;48.756;9.226;2023-07-28T08:45:38;4.72;;;4.40;;
18425;SDS011;9340;48.756;9.226;2023-07-28T08:48:04;5.40;;;4.32;;
18425;SDS011;9340;48.756;9.226;2023-07-28T08:50:31;5.63;;;4.28;;
18425;SDS011;9340;48.756;9.226;2023-07-28T08:53:00;5.22;;;4.45;;
18425;SDS011;9340;48.756;9.226;2023-07-28T08:55:27;4.60;;;4.13;;
18425;SDS011;9340;48.756;9.226;2023-07-28T08:57:53;4.40;;;4.00;;
18425;SDS011;9340;48.756;9.226;2023-07-28T09:00:20;4.68;;;4.32;;
18425;SDS011;9340;48.756;9.226;2023-07-28T09:02:50;6.80;;;6.32;;
18425;SDS011;9340;48.756;9.226;2023-07-28T09:05:17;4.95;;;4.30;;
18425;SDS011;9340;48.756;9.226;2023-07-28T09:07:44;5.90;;;4.28;;
18425;SDS011;9340;48.756;9.226;2023-07-28T09:10:13;7.57;;;4.10;;
18425;SDS011;9340;48.756;9.226;2023-07-28T09:12:44;4.70;;;4.30;;
18425;SDS011;9340;48.756;9.226;2023-07-28T09:15:11;4.88;;;4.53;;
18425;SDS011;9340;48.756;9.226;2023-07-28T09:17:41;4.65;;;4.25;;
18425;SDS011;9340;48.756;9.226;2023-07-28T09:20:09;4.65;;;4.25;;
18425;SDS011;9340;48.756;9.226;2023-07-28T09:22:39;6.30;;;4.95;;
18425;SDS011;9340;48.756;9.226;2023-07-28T09:25:11;7.28;;;5.57;;
18425;SDS011;9340;48.756;9.226;2023-07-28T09:27:40;5.43;;;4.93;;
18425;SDS011;9340;48.756;9.226;2023-07-28T09:30:15;6.22;;;5.10;;
18425;SDS011;9340;48.756;9.226;2023-07-28T09:32:46;5.55;;;4.95;;
18425;SDS011;9340;48.756;9.226;2023-07-28T09:35:13;6.25;;;5.75;;
18425;SDS011;9340;48.756;9.226;2023-07-28T09:37:41;9.50;;;6.20;;
18425;SDS011;9340;48.756;9.226;2023-07-28T09:40:10;7.47;;;6.25;;
18425;SDS011;9340;48.756;9.226;2023-07-28T09:42:39;8.45;;;6.90;;
18425;SDS011;9340;48.756;9.226;2023-07-28T09:45:06;7.50;;;6.78;;
18425;SDS011;9340;48.756;9.226;2023-07-28T09:47:35;6.47;;;5.88;;
18425;SDS011;9340;48.756;9.226;2023-07-28T09:50:02;7.53;;;5.82;;
18425;SDS011;9340;48.756;9.226;2023-07-28T09:52:31;7.07;;;6.38;;
18425;SDS011;9340;48.756;9.226;2023-07-28T09:55:03;6.78;;;6.07;;
18425;SDS011;9340;48.756;9.226;2023-07-28T09:57:33;5.72;;;5.10;;
18425;SDS011;9340;48.756;9.226;2023-07-28T10:00:06;6.25;;;5.65;;
18425;SDS011;9340;48.756;9.226;2023-07-28T10:02:34;9.35;;;6.10;;
18425;SDS011;9340;48.756;9.226;2023-07-28T10:05:03;6.40;;;5.47;;
18425;SDS011;9340;48.756;9.226;2023-07-28T10:07:31;6.90;;;4.70;;
18425;SDS011;9340;48.756;9.226;2023-07-28T10:09:59;5.28;;;4.85;;
18425;SDS011;9340;48.756;9.226;2023-07-28T10:12:26;5.95;;;4.60;;
18425;SDS011;9340;48.756;9.226;2023-07-28T10:14:59;4.78;;;4.30;;
18425;SDS011;9340;48.756;9.226;2023-07-28T10:17:31;4.80;;;4.40;;
18425;SDS011;9340;48.756;9.226;2023-07-28T10:19:59;5.10;;;4.05;;
18425;SDS011;9340;48.756;9.226;2023-07-28T10:22:32;3.97;;;3.55;;
18425;SDS011;9340;48.756;9.226;2023-07-28T10:25:00;6.53;;;3.72;;
18425;SDS011;9340;48.756;9.226;2023-07-28T10:27:31;4.70;;;4.30;;
18425;SDS011;9340;48.756;9.226;2023-07-28T10:30:01;5.90;;;5.40;;
18425;SDS011;9340;48.756;9.226;2023-07-28T10:32:38;5.07;;;4.45;;
18425;SDS011;9340;48.756;9.226;2023-07-28T10:35:06;4.63;;;4.22;;
18425;SDS011;9340;48.756;9.226;2023-07-28T10:37:34;3.53;;;3.20;;
18425;SDS011;9340;48.756;9.226;2023-07-28T10:42:54;3.38;;;3.05;;
18425;SDS011;9340;48.756;9.226;2023-07-28T10:45:22;4.55;;;3.83;;
18425;SDS011;9340;48.756;9.226;2023-07-28T10:47:52;3.47;;;3.17;;
18425;SDS011;9340;48.756;9.226;2023-07-28T10:50:21;3.90;;;3.50;;
18425;SDS011;9340;48.756;9.226;2023-07-28T10:52:48;5.90;;;3.38;;
18425;SDS011;9340;48.756;9.226;2023-07-28T10:55:16;4.13;;;3.72;;
18425;SDS011;9340;48.756;9.226;2023-07-28T10:57:45;3.45;;;3.15;;
18425;SDS011;9340;48.756;9.226;2023-07-28T11:00:14;6.10;;;4.10;;
18425;SDS011;9340;48.756;9.226;2023-07-28T11:02:42;5.00;;;2.58;;
18425;SDS011;9340;48.756;9.226;2023-07-28T11:05:11;3.45;;;2.90;;
18425;SDS011;9340;48.756;9.226;2023-07-28T11:07:40;2.67;;;2.47;;
18425;SDS011;9340;48.756;9.226;2023-07-28T11:10:09;3.33;;;2.55;;
18425;SDS011;9340;48.756;9.226;2023-07-28T11:12:38;2.17;;;2.00;;
18425;SDS011;9340;48.756;9.226;2023-07-28T11:15:07;2.42;;;2.22;;
18425;SDS011;9340;48.756;9.226;2023-07-28T11:17:36;3.53;;;2.10;;
18425;SDS011;9340;48.756;9.226;2023-07-28T11:20:04;2.45;;;2.25;;
18425;SDS011;9340;48.756;9.226;2023-07-28T11:22:41;2.30;;;2.10;;
18425;SDS011;9340;48.756;9.226;2023-07-28T11:25:08;2.58;;;2.03;;
18425;SDS011;9340;48.756;9.226;2023-07-28T11:27:35;2.33;;;1.85;;
18425;SDS011;9340;48.756;9.226;2023-07-28T11:30:02;1.98;;;1.88;;
18425;SDS011;9340;48.756;9.226;2023-07-28T11:32:30;1.80;;;1.70;;
18425;SDS011;9340;48.756;9.226;2023-07-28T11:35:02;2.78;;;2.40;;
18425;SDS011;9340;48.756;9.226;2023-07-28T11:37:30;2.35;;;2.15;;
18425;SDS011;9340;48.756;9.226;2023-07-28T11:40:00;2.03;;;1.73;;
18425;SDS011;9340;48.756;9.226;2023-07-28T11:42:31;2.33;;;2.13;;
18425;SDS011;9340;48.756;9.226;2023-07-28T11:44:59;2.70;;;2.20;;
18425;SDS011;9340;48.756;9.226;2023-07-28T11:47:27;2.58;;;2.03;;
18425;SDS011;9340;48.756;9.226;2023-07-28T11:49:55;2.47;;;2.28;;
18425;SDS011;9340;48.756;9.226;2023-07-28T11:52:23;2.40;;;2.20;;
18425;SDS011;9340;48.756;9.226;2023-07-28T11:54:50;2.30;;;2.08;;
18425;SDS011;9340;48.756;9.226;2023-07-28T11:57:19;2.60;;;2.28;;
18425;SDS011;9340;48.756;9.226;2023-07-28T11:59:46;2.55;;;2.35;;
18425;SDS011;9340;48.756;9.226;2023-07-28T12:02:13;2.55;;;2.22;;
18425;SDS011;9340;48.756;9.226;2023-07-28T12:04:40;2.08;;;1.98;;
18425;SDS011;9340;48.756;9.226;2023-07-28T12:07:09;2.50;;;2.30;;
18425;SDS011;9340;48.756;9.226;2023-07-28T12:09:49;6.45;;;2.97;;
18425;SDS011;9340;48.756;9.226;2023-07-28T12:12:19;3.05;;;2.75;;
18425;SDS011;9340;48.756;9.226;2023-07-28T12:14:49;3.85;;;2.88;;
18425;SDS011;9340;48.756;9.226;2023-07-28T12:17:16;3.55;;;3.25;;
18425;SDS011;9340;48.756;9.226;2023-07-28T12:19:54;3.50;;;3.20;;
18425;SDS011;9340;48.756;9.226;2023-07-28T12:22:22;3.35;;;3.05;;
18425;SDS011;9340;48.756;9.226;2023-07-28T12:24:48;5.03;;;3.63;;
18425;SDS011;9340;48.756;9.226;2023-07-28T12:27:15;3.58;;;3.10;;
18425;SDS011;9340;48.756;9.226;2023-07-28T12:29:43;3.38;;;3.08;;
18425;SDS011;9340;48.756;9.226;2023-07-28T12:32:10;3.70;;;3.30;;
18425;SDS011;9340;48.756;9.226;2023-07-28T12:34:37;3.33;;;2.92;;
18425;SDS011;9340;48.756;9.226;2023-07-28T12:37:05;3.40;;;3.10;;
18425;SDS011;9340;48.756;9.226;2023-07-28T12:39:32;3.30;;;3.10;;
18425;SDS011;9340;48.756;9.226;2023-07-28T12:41:59;3.83;;;3.53;;
18425;SDS011;9340;48.756;9.226;2023-07-28T12:44:26;3.63;;;3.30;;
18425;SDS011;9340;48.756;9.226;2023-07-28T12:46:54;3.40;;;3.10;;
18425;SDS011;9340;48.756;9.226;2023-07-28T12:49:21;3.45;;;3.15;;
18425;SDS011;9340;48.756;9.226;2023-07-28T12:51:48;3.30;;;3.10;;
18425;SDS011;9340;48.756;9.226;2023-07-28T12:54:14;3.50;;;3.20;;
18425;SDS011;9340;48.756;9.226;2023-07-28T12:56:41;3.90;;;3.50;;
18425;SDS011;9340;48.756;9.226;2023-07-28T12:59:09;3.67;;;3.38;;
18425;SDS011;9340;48.756;9.226;2023-07-28T13:01:36;3.13;;;2.90;;
18425;SDS011;9340;48.756;9.226;2023-07-28T13:04:05;4.88;;;3.22;;
18425;SDS011;9340;48.756;9.226;2023-07-28T13:06:31;3.17;;;2.97;;
18425;SDS011;9340;48.756;9.226;2023-07-28T13:08:58;3.20;;;2.90;;
18425;SDS011;9340;48.756;9.226;2023-07-28T13:11:25;3.00;;;2.80;;
18425;SDS011;9340;48.756;9.226;2023-07-28T13:13:51;3.20;;;3.00;;
18425;SDS011;9340;48.756;9.226;2023-07-28T13:16:18;3.38;;;3.08;;
18425;SDS011;9340;48.756;9.226;2023-07-28T13:18:45;3.40;;;3.10;;
18425;SDS011;9340;48.756;9.226;2023-07-28T13:21:12;3.50;;;3.20;;
18425;SDS011;9340;48.756;9.226;2023-07-28T13:23:39;3.53;;;3.20;;
18425;SDS011;9340;48.756;9.226;2023-07-28T13:26:06;3.20;;;3.00;;
18425;SDS011;9340;48.756;9.226;2023-07-28T13:28:33;2.75;;;2.55;;
18425;SDS011;9340;48.756;9.226;2023-07-28T13:31:00;2.60;;;2.40;;
18425;SDS011;9340;48.756;9.226;2023-07-28T13:33:28;3.50;;;3.20;;
18425;SDS011;9340;48.756;9.226;2023-07-28T13:35:55;5.55;;;3.13;;
18425;SDS011;9340;48.756;9.226;2023-07-28T13:38:23;3.22;;;2.92;;
18425;SDS011;9340;48.756;9.226;2023-07-28T13:40:49;3.00;;;2.80;;
18425;SDS011;9340;48.756;9.226;2023-07-28T13:43:16;2.90;;;2.70;;
18425;SDS011;9340;48.756;9.226;2023-07-28T13:45:43;3.15;;;2.85;;
18425;SDS011;9340;48.756;9.226;2023-07-28T13:48:09;3.17;;;2.97;;
18425;SDS011;9340;48.756;9.226;2023-07-28T13:50:36;3.30;;;3.00;;
18425;SDS011;9340;48.756;9.226;2023-07-28T13:53:03;3.28;;;2.97;;
18425;SDS011;9340;48.756;9.226;2023-07-28T13:55:31;3.80;;;2.88;;
18425;SDS011;9340;48.756;9.226;2023-07-28T13:57:57;6.88;;;3.50;;
18425;SDS011;9340;48.756;9.226;2023-07-28T14:00:24;4.53;;;3.55;;
18425;SDS011;9340;48.756;9.226;2023-07-28T14:02:51;5.18;;;3.88;;
18425;SDS011;9340;48.756;9.226;2023-07-28T14:05:17;6.20;;;4.00;;
18425;SDS011;9340;48.756;9.226;2023-07-28T14:07:44;6.68;;;4.28;;
18425;SDS011;9340;48.756;9.226;2023-07-28T14:10:11;6.68;;;4.30;;
18425;SDS011;9340;48.756;9.226;2023-07-28T14:12:39;5.55;;;5.15;;
18425;SDS011;9340;48.756;9.226;2023-07-28T14:15:06;5.35;;;4.95;;
18425;SDS011;9340;48.756;9.226;2023-07-28T14:17:34;5.40;;;4.90;;
18425;SDS011;9340;48.756;9.226;2023-07-28T14:20:00;4.90;;;4.30;;
18425;SDS011;9340;48.756;9.226;2023-07-28T14:22:27;5.28;;;4.78;;
18425;SDS011;9340;48.756;9.226;2023-07-28T14:24:54;5.75;;;5.25;;
18425;SDS011;9340;48.756;9.226;2023-07-28T14:27:21;4.68;;;4.20;;
18425;SDS011;9340;48.756;9.226;2023-07-28T14:29:49;5.20;;;4.70;;
18425;SDS011;9340;48.756;9.226;2023-07-28T14:32:15;5.30;;;4.80;;
18425;SDS011;9340;48.756;9.226;2023-07-28T14:34:42;4.50;;;4.10;;
18425;SDS011;9340;48.756;9.226;2023-07-28T14:37:09;5.05;;;4.65;;
18425;SDS011;9340;48.756;9.226;2023-07-28T14:39:36;4.82;;;4.20;;
18425;SDS011;9340;48.756;9.226;2023-07-28T14:42:03;5.10;;;4.57;;
18425;SDS011;9340;48.756;9.226;2023-07-28T14:44:30;4.78;;;4.38;;
18425;SDS011;9340;48.756;9.226;2023-07-28T14:46:58;4.88;;;4.47;;
18425;SDS011;9340;48.756;9.226;2023-07-28T14:49:25;5.00;;;4.60;;
18425;SDS011;9340;48.756;9.226;2023-07-28T14:51:53;6.32;;;4.65;;
18425;SDS011;9340;48.756;9.226;2023-07-28T14:54:19;4.60;;;4.20;;
18425;SDS011;9340;48.756;9.226;2023-07-28T14:56:46;4.75;;;4.35;;
18425;SDS011;9340;48.756;9.226;2023-07-28T14:59:13;5.38;;;4.32;;
18425;SDS011;9340;48.756;9.226;2023-07-28T15:01:40;4.93;;;4.22;;
18425;SDS011;9340;48.756;9.226;2023-07-28T15:04:08;4.43;;;4.10;;